Time;durP1;ratioP1;P1;durP2;ratioP2;P2;SDS_P1;SDS_P2;PMS_P1;PMS_P2;Temp;Humidity;BMP_temperature;BMP_pressure;BME280_temperature;BME280_humidity;BME280_pressure;Samples;Min_cycle;Max_cycle;Signal;HPM_P1;HPM_P2
2023/05/07 00:00:45;;;;;;;;;;;;;;;13.73;82.06;96371.00;4985333;28;19955;-74
2023/05/07 00:03:13;;;;;;;;;;;;;;;13.70;81.82;96368.81;4985413;28;19959;-72
2023/05/07 00:05:39;;;;;;;;;;;;;;;13.68;81.95;96368.25;4984932;28;19954;-72
2023/05/07 00:08:05;;;;;;;;;;;;;;;13.66;81.90;96366.91;4985451;28;20241;-68
2023/05/07 00:10:31;;;;;;;;;;;;;;;13.65;82.91;96365.28;4985356;28;19953;-68
2023/05/07 00:12:57;;;;;;;;;;;;;;;13.63;83.17;96365.56;4985341;28;19977;-68
2023/05/07 00:15:23;;;;;;;;;;;;;;;13.60;82.99;96361.53;4985533;28;19968;-68
2023/05/07 00:17:48;;;;;;;;;;;;;;;13.59;83.17;96361.81;4985022;28;19958;-67
2023/05/07 00:20:15;;;;;;;;;;;;;;;13.57;83.11;96354.13;5052569;28;19960;-67
2023/05/07 00:22:41;;;;;;;;;;;;;;;13.56;84.08;96363.06;4984838;28;19951;-68
2023/05/07 00:25:07;;;;;;;;;;;;;;;13.55;83.32;96358.84;4985209;28;19955;-69
2023/05/07 00:27:33;;;;;;;;;;;;;;;13.55;84.05;96365.94;5051890;28;19961;-73
2023/05/07 00:29:59;;;;;;;;;;;;;;;13.54;83.99;96361.69;4984873;28;19965;-74
2023/05/07 00:32:24;;;;;;;;;;;;;;;13.56;84.04;96367.53;4985193;28;19953;-73
2023/05/07 00:34:50;;;;;;;;;;;;;;;13.55;83.81;96358.03;4984699;28;19965;-73
2023/05/07 00:37:16;;;;;;;;;;;;;;;13.56;83.83;96354.34;4984597;28;19954;-73
2023/05/07 00:39:42;;;;;;;;;;;;;;;13.56;84.20;96357.00;4984994;28;19955;-74
2023/05/07 00:42:08;;;;;;;;;;;;;;;13.54;84.74;96348.53;4985237;28;19965;-75
2023/05/07 00:44:34;;;;;;;;;;;;;;;13.55;85.52;96344.88;4984290;28;19948;-73
2023/05/07 00:47:01;;;;;;;;;;;;;;;13.53;84.55;96341.69;4984888;28;20278;-70
2023/05/07 00:49:35;;;;;;;;;;;;;;;13.52;84.91;96343.53;4984841;28;19959;-69
2023/05/07 00:52:01;;;;;;;;;;;;;;;13.50;85.07;96339.50;4984933;28;19962;-69
2023/05/07 00:54:27;;;;;;;;;;;;;;;13.48;84.86;96339.75;4984211;28;19963;-69
2023/05/07 00:56:53;;;;;;;;;;;;;;;13.48;85.14;96337.13;4984797;28;19960;-69
2023/05/07 00:59:19;;;;;;;;;;;;;;;13.45;85.77;96340.22;4984505;28;19956;-69
2023/05/07 01:01:45;;;;;;;;;;;;;;;13.44;85.55;96343.91;4984459;28;20034;-70
2023/05/07 01:04:11;;;;;;;;;;;;;;;13.44;85.70;96345.72;4984563;28;20034;-74
2023/05/07 01:06:37;;;;;;;;;;;;;;;13.43;85.81;96337.03;4984525;28;19963;-70
2023/05/07 01:09:04;;;;;;;;;;;;;;;13.42;85.81;96339.91;4984516;28;19966;-70
2023/05/07 01:11:30;;;;;;;;;;;;;;;13.39;85.87;96344.59;4983971;28;20140;-69
2023/05/07 01:13:57;;;;;;;;;;;;;;;13.38;86.58;96345.66;4984020;28;19957;-68
2023/05/07 01:16:23;;;;;;;;;;;;;;;13.35;86.82;96338.22;5051636;28;19970;-68
2023/05/07 01:18:49;;;;;;;;;;;;;;;13.33;87.08;96332.41;4984012;28;19962;-68
2023/05/07 01:21:16;;;;;;;;;;;;;;;13.31;87.02;96331.84;4984410;28;19958;-70
2023/05/07 01:23:42;;;;;;;;;;;;;;;13.29;86.78;96330.47;4983762;28;19961;-76
2023/05/07 01:26:08;;;;;;;;;;;;;;;13.27;87.29;96335.13;4984065;28;19956;-74
2023/05/07 01:28:34;;;;;;;;;;;;;;;13.24;87.51;96330.34;4984073;28;19957;-75
2023/05/07 01:31:02;;;;;;;;;;;;;;;13.24;87.42;96331.16;4983972;28;19975;-76
2023/05/07 01:33:31;;;;;;;;;;;;;;;13.22;87.53;96333.22;5050920;28;19965;-75
2023/05/07 01:35:58;;;;;;;;;;;;;;;13.20;88.14;96343.97;4984234;28;19955;-76
2023/05/07 01:38:24;;;;;;;;;;;;;;;13.19;87.85;96342.41;4984076;28;19959;-75
2023/05/07 01:40:50;;;;;;;;;;;;;;;13.19;87.81;96341.59;4984103;28;19947;-72
2023/05/07 01:43:17;;;;;;;;;;;;;;;13.18;88.33;96348.69;4983593;28;19953;-75
2023/05/07 01:45:44;;;;;;;;;;;;;;;13.18;88.30;96340.00;4983543;28;19959;-74
2023/05/07 01:48:11;;;;;;;;;;;;;;;13.19;88.21;96338.97;4982720;28;19966;-72
2023/05/07 01:50:37;;;;;;;;;;;;;;;13.18;88.24;96340.78;4983786;28;20269;-73
2023/05/07 01:53:02;;;;;;;;;;;;;;;13.16;88.14;96334.97;4983789;28;19962;-71
2023/05/07 01:55:28;;;;;;;;;;;;;;;13.14;88.15;96325.72;4983952;28;19958;-72
2023/05/07 01:57:54;;;;;;;;;;;;;;;13.11;88.27;96326.19;5050308;28;19964;-82
2023/05/07 02:00:20;;;;;;;;;;;;;;;13.08;88.45;96327.47;4983619;28;19958;-69
2023/05/07 02:02:46;;;;;;;;;;;;;;;13.06;88.28;96324.28;4983774;28;19959;-81
2023/05/07 02:05:13;;;;;;;;;;;;;;;13.04;88.60;96331.59;4983632;28;19952;-79
2023/05/07 02:07:39;;;;;;;;;;;;;;;13.00;88.46;96323.38;4983588;28;20240;-78
2023/05/07 02:10:05;;;;;;;;;;;;;;;13.00;88.69;96330.47;4984116;28;19946;-78
2023/05/07 02:12:31;;;;;;;;;;;;;;;12.97;88.85;96334.34;4983355;28;19964;-79
2023/05/07 02:14:56;;;;;;;;;;;;;;;12.96;88.69;96332.78;4983709;28;19952;-82
2023/05/07 02:17:22;;;;;;;;;;;;;;;12.94;88.97;96328.78;4983475;28;19965;-68
2023/05/07 02:19:48;;;;;;;;;;;;;;;12.92;89.51;96333.50;4983351;28;19955;-69
2023/05/07 02:22:14;;;;;;;;;;;;;;;12.88;89.30;96333.16;4982880;28;19994;-69
2023/05/07 02:24:40;;;;;;;;;;;;;;;12.86;89.39;96329.16;4983108;28;19952;-69
2023/05/07 02:27:06;;;;;;;;;;;;;;;12.81;89.59;96327.25;4983957;28;19963;-69
2023/05/07 02:29:32;;;;;;;;;;;;;;;12.74;89.73;96324.72;4983181;28;19955;-69
2023/05/07 02:31:57;;;;;;;;;;;;;;;12.66;89.89;96327.75;4983198;28;20031;-68
2023/05/07 02:34:23;;;;;;;;;;;;;;;12.58;89.37;96328.91;4983252;28;19953;-83
2023/05/07 02:36:49;;;;;;;;;;;;;;;12.55;90.35;96341.72;4983260;28;20137;-72
2023/05/07 02:39:16;;;;;;;;;;;;;;;12.54;90.04;96337.50;4983179;28;19962;-74
2023/05/07 02:41:42;;;;;;;;;;;;;;;12.53;90.24;96335.88;4983179;28;20138;-73
2023/05/07 02:44:08;;;;;;;;;;;;;;;12.52;90.20;96340.34;5033395;28;19964;-73
2023/05/07 02:46:34;;;;;;;;;;;;;;;12.50;90.35;96331.91;4983249;28;19957;-74
2023/05/07 02:49:00;;;;;;;;;;;;;;;12.48;90.33;96331.31;4983248;28;20137;-75
2023/05/07 02:51:27;;;;;;;;;;;;;;;12.48;91.19;96333.97;4982707;28;19966;-74
2023/05/07 02:53:52;;;;;;;;;;;;;;;12.46;90.88;96324.72;4983037;28;19965;-68
2023/05/07 02:56:18;;;;;;;;;;;;;;;12.45;90.38;96323.09;5049317;28;19956;-70
2023/05/07 02:58:44;;;;;;;;;;;;;;;12.43;90.41;96325.16;4982818;28;19963;-69
2023/05/07 03:01:10;;;;;;;;;;;;;;;12.41;90.31;96317.53;4982712;28;19979;-69
2023/05/07 03:03:36;;;;;;;;;;;;;;;12.41;90.33;96319.31;4982875;28;19959;-69
2023/05/07 03:06:02;;;;;;;;;;;;;;;12.37;89.91;96317.19;4982855;28;19950;-69
2023/05/07 03:08:27;;;;;;;;;;;;;;;12.36;90.64;96325.28;4982738;28;19956;-69
2023/05/07 03:10:53;;;;;;;;;;;;;;;12.33;90.81;96321.31;4982301;28;19962;-73
2023/05/07 03:13:19;;;;;;;;;;;;;;;12.30;90.56;96327.00;4983024;28;19958;-69
2023/05/07 03:15:45;;;;;;;;;;;;;;;12.30;90.55;96334.09;4982571;28;20007;-74
2023/05/07 03:18:11;;;;;;;;;;;;;;;12.27;91.04;96337.19;4982360;28;19966;-73
2023/05/07 03:20:37;;;;;;;;;;;;;;;12.25;90.58;96326.91;5049740;28;20273;-73
2023/05/07 03:23:03;;;;;;;;;;;;;;;12.20;90.67;96329.44;4982731;28;19963;-73
2023/05/07 03:25:29;;;;;;;;;;;;;;;12.15;90.90;96321.44;4982407;28;19990;-73
2023/05/07 03:27:56;;;;;;;;;;;;;;;12.11;91.37;96323.72;4982410;28;19950;-73
2023/05/07 03:30:22;;;;;;;;;;;;;;;12.09;90.88;96319.72;4982471;28;19960;-68
2023/05/07 03:32:47;;;;;;;;;;;;;;;12.05;91.21;96324.63;4982591;28;20031;-73
2023/05/07 03:35:14;;;;;;;;;;;;;;;12.03;91.24;96318.00;5049327;28;19962;-73
2023/05/07 03:37:40;;;;;;;;;;;;;;;12.01;91.29;96322.69;4982414;28;20136;-73
2023/05/07 03:40:07;;;;;;;;;;;;;;;12.00;91.28;96329.78;4981911;28;19942;-73
2023/05/07 03:42:33;;;;;;;;;;;;;;;11.99;91.48;96333.47;4981980;28;19961;-73
2023/05/07 03:44:59;;;;;;;;;;;;;;;11.95;91.52;96325.22;4981801;28;20259;-74
2023/05/07 03:47:24;;;;;;;;;;;;;;;11.95;92.13;96321.81;4982611;28;19954;-73
2023/05/07 03:49:52;;;;;;;;;;;;;;;11.92;92.09;96322.25;4982357;28;19967;-73
2023/05/07 03:52:22;;;;;;;;;;;;;;;11.89;92.49;96331.41;4981858;28;19964;-73
2023/05/07 03:54:48;;;;;;;;;;;;;;;11.86;92.96;96323.94;4982056;28;19952;-73
2023/05/07 03:57:14;;;;;;;;;;;;;;;11.85;92.17;96321.56;4982213;28;20145;-74
2023/05/07 03:59:40;;;;;;;;;;;;;;;11.83;91.39;96318.34;4982249;28;19952;-75
2023/05/07 04:02:06;;;;;;;;;;;;;;;11.80;92.17;96322.25;4982270;28;19963;-73
2023/05/07 04:04:32;;;;;;;;;;;;;;;11.79;91.87;96321.41;4982267;28;19950;-74
2023/05/07 04:07:00;;;;;;;;;;;;;;;11.77;92.78;96325.31;4982081;28;19957;-70
2023/05/07 04:09:26;;;;;;;;;;;;;;;11.76;92.54;96336.84;4981665;28;20236;-72
2023/05/07 04:11:52;;;;;;;;;;;;;;;11.75;92.46;96337.88;4983143;28;20013;-72
2023/05/07 04:14:17;;;;;;;;;;;;;;;11.73;92.99;96332.84;4984871;28;20021;-73
2023/05/07 04:16:43;;;;;;;;;;;;;;;11.73;93.79;96338.09;4985394;28;19972;-71
2023/05/07 04:19:09;;;;;;;;;;;;;;;11.72;92.87;96336.50;4985017;28;19964;-72
2023/05/07 04:21:35;;;;;;;;;;;;;;;11.71;93.60;96336.72;4984995;28;19960;-73
2023/05/07 04:24:03;;;;;;;;;;;;;;;11.70;93.43;96343.03;4985204;28;19952;-72
2023/05/07 04:26:29;;;;;;;;;;;;;;;11.69;93.55;96336.94;4985276;28;19959;-77
2023/05/07 04:28:55;;;;;;;;;;;;;;;11.69;93.67;96342.19;4985119;28;20022;-79
2023/05/07 04:31:21;;;;;;;;;;;;;;;11.68;93.02;96337.19;4985018;28;19972;-77
2023/05/07 04:33:46;;;;;;;;;;;;;;;11.69;92.42;96338.78;4985110;28;19958;-78
2023/05/07 04:36:12;;;;;;;;;;;;;;;11.70;92.30;96337.75;4985018;28;20245;-77
2023/05/07 04:38:38;;;;;;;;;;;;;;;11.71;93.19;96350.66;4985290;28;19944;-77
2023/05/07 04:41:05;;;;;;;;;;;;;;;11.72;93.83;96346.22;4984598;28;20037;-78
2023/05/07 04:43:30;;;;;;;;;;;;;;;11.72;93.87;96340.97;4984840;28;20247;-69
2023/05/07 04:45:56;;;;;;;;;;;;;;;11.74;94.09;96344.97;4985010;28;20005;-68
2023/05/07 04:48:22;;;;;;;;;;;;;;;11.78;93.75;96348.72;4984975;28;19959;-68
2023/05/07 04:50:48;;;;;;;;;;;;;;;11.83;93.63;96353.28;4984572;28;19961;-68
2023/05/07 04:53:14;;;;;;;;;;;;;;;11.87;94.34;96362.31;4984824;28;19961;-67
2023/05/07 04:55:40;;;;;;;;;;;;;;;11.93;94.59;96353.56;4984776;28;20014;-69
2023/05/07 04:58:06;;;;;;;;;;;;;;;11.98;93.36;96348.41;4984702;28;19980;-67
2023/05/07 05:00:33;;;;;;;;;;;;;;;12.05;94.34;96356.16;4984622;28;20257;-68
2023/05/07 05:02:58;;;;;;;;;;;;;;;12.29;94.19;96353.56;4984757;28;19958;-76
2023/05/07 05:05:24;;;;;;;;;;;;;;;12.59;93.54;96350.75;5051237;28;20263;-69
2023/05/07 05:07:51;;;;;;;;;;;;;;;12.95;92.46;96346.94;4984813;28;20010;-68
2023/05/07 05:10:17;;;;;;;;;;;;;;;13.34;91.50;96338.47;4984334;28;20140;-68
2023/05/07 05:12:43;;;;;;;;;;;;;;;13.73;89.88;96339.38;4984343;28;20028;-68
2023/05/07 05:15:10;;;;;;;;;;;;;;;14.13;88.21;96338.38;4984134;28;19964;-69
2023/05/07 05:17:36;;;;;;;;;;;;;;;14.54;85.53;96325.69;4984355;28;20258;-70
2023/05/07 05:20:02;;;;;;;;;;;;;;;14.93;84.61;96324.81;4984173;28;19955;-74
2023/05/07 05:22:30;;;;;;;;;;;;;;;15.32;83.19;96306.19;4983741;28;19957;-87
2023/05/07 05:24:56;;;;;;;;;;;;;;;15.69;81.54;96295.63;4983544;28;19958;-69
2023/05/07 05:27:22;;;;;;;;;;;;;;;15.99;80.55;96296.91;4984220;28;19983;-69
2023/05/07 05:29:48;;;;;;;;;;;;;;;16.23;77.18;96276.94;4984285;28;19956;-69
2023/05/07 05:32:14;;;;;;;;;;;;;;;16.42;77.38;96282.59;4984164;28;20181;-69
2023/05/07 05:34:40;;;;;;;;;;;;;;;16.66;77.18;96274.19;4983488;28;19978;-69
2023/05/07 05:37:06;;;;;;;;;;;;;;;16.97;75.16;96271.66;4983639;28;20125;-69
2023/05/07 05:39:31;;;;;;;;;;;;;;;17.21;74.41;96259.47;4984168;28;19960;-69
2023/05/07 05:41:57;;;;;;;;;;;;;;;17.39;73.48;96258.16;4984168;28;19951;-69
2023/05/07 05:44:23;;;;;;;;;;;;;;;17.47;73.21;96258.66;4984233;28;19968;-69
2023/05/07 05:46:49;;;;;;;;;;;;;;;17.54;72.63;96257.34;4983683;28;19951;-70
2023/05/07 05:49:15;;;;;;;;;;;;;;;17.73;72.75;96262.09;4984192;28;19957;-69
2023/05/07 05:51:41;;;;;;;;;;;;;;;17.97;72.15;96260.47;4983836;28;20244;-70
2023/05/07 05:54:07;;;;;;;;;;;;;;;18.05;70.06;96238.69;4983388;28;20031;-70
2023/05/07 05:56:33;;;;;;;;;;;;;;;18.08;71.26;96255.13;4983903;28;20001;-76
2023/05/07 05:58:59;;;;;;;;;;;;;;;18.17;71.16;96261.50;4983692;28;20009;-75
2023/05/07 06:01:25;;;;;;;;;;;;;;;18.30;70.61;96260.91;4983790;28;19955;-67
2023/05/07 06:03:51;;;;;;;;;;;;;;;18.38;70.34;96260.34;4983800;28;20035;-67
2023/05/07 06:06:17;;;;;;;;;;;;;;;18.41;70.05;96256.34;4983645;28;19958;-68
2023/05/07 06:08:43;;;;;;;;;;;;;;;18.38;69.82;96257.69;4983933;28;20282;-67
2023/05/07 06:11:09;;;;;;;;;;;;;;;18.34;70.35;96271.78;4983571;28;19958;-68
2023/05/07 06:13:35;;;;;;;;;;;;;;;18.39;70.61;96279.72;4983786;28;19956;-68
2023/05/07 06:16:01;;;;;;;;;;;;;;;18.52;70.24;96278.34;4983200;28;19960;-74
2023/05/07 06:18:26;;;;;;;;;;;;;;;18.57;70.08;96275.66;4983401;28;19953;-73
2023/05/07 06:20:52;;;;;;;;;;;;;;;18.64;69.49;96273.50;4983218;28;19959;-73
2023/05/07 06:23:18;;;;;;;;;;;;;;;18.62;69.56;96276.41;4982903;28;19957;-74
2023/05/07 06:25:50;;;;;;;;;;;;;;;18.71;69.54;96279.31;4983147;28;19967;-74
2023/05/07 06:28:16;;;;;;;;;;;;;;;18.75;68.84;96275.06;4983191;28;20225;-74
2023/05/07 06:30:42;;;;;;;;;;;;;;;18.79;69.13;96289.41;4983281;28;20026;-74
2023/05/07 06:33:08;;;;;;;;;;;;;;;18.92;68.90;96288.00;4983202;28;19993;-74
2023/05/07 06:35:34;;;;;;;;;;;;;;;19.10;68.30;96291.88;4982817;28;19979;-70
2023/05/07 06:38:00;;;;;;;;;;;;;;;19.20;68.38;96302.44;4983145;28;19999;-70
2023/05/07 06:40:26;;;;;;;;;;;;;;;19.14;68.25;96310.72;4983460;28;20100;-70
2023/05/07 06:42:52;;;;;;;;;;;;;;;18.92;67.67;96319.88;4982947;28;19964;-70
2023/05/07 06:45:19;;;;;;;;;;;;;;;18.64;67.49;96327.41;4983041;28;19952;-70
2023/05/07 06:47:44;;;;;;;;;;;;;;;18.39;68.71;96336.25;4983197;28;19955;-70
2023/05/07 06:50:10;;;;;;;;;;;;;;;18.15;69.66;96343.25;4982815;28;19956;-70
2023/05/07 06:52:36;;;;;;;;;;;;;;;18.00;70.19;96346.72;4982796;28;19963;-83
2023/05/07 06:55:02;;;;;;;;;;;;;;;17.97;72.26;96361.28;4982963;28;20206;-81
2023/05/07 06:57:28;;;;;;;;;;;;;;;18.05;71.73;96357.31;4982998;28;19965;-81
2023/05/07 06:59:54;;;;;;;;;;;;;;;18.10;72.54;96362.63;4982237;28;19963;-82
2023/05/07 07:02:20;;;;;;;;;;;;;;;18.20;73.06;96353.84;4982098;28;19961;-81
2023/05/07 07:04:46;;;;;;;;;;;;;;;18.33;71.68;96352.47;4982042;28;19953;-81
2023/05/07 07:07:11;;;;;;;;;;;;;;;18.42;71.58;96356.97;4981950;28;19964;-81
2023/05/07 07:09:37;;;;;;;;;;;;;;;18.53;68.63;96341.00;4982175;28;19960;-82
2023/05/07 07:12:03;;;;;;;;;;;;;;;18.61;71.18;96356.41;4981906;28;19966;-69
2023/05/07 07:14:29;;;;;;;;;;;;;;;18.63;71.62;96360.38;4982572;28;19983;-68
2023/05/07 07:16:55;;;;;;;;;;;;;;;18.64;70.14;96353.19;5048617;28;20244;-67
2023/05/07 07:19:21;;;;;;;;;;;;;;;18.51;71.20;96357.22;4981915;28;19953;-68
2023/05/07 07:21:46;;;;;;;;;;;;;;;18.38;69.57;96341.84;4982008;28;19963;-69
2023/05/07 07:24:13;;;;;;;;;;;;;;;18.34;70.73;96357.53;4982066;28;19962;-69
2023/05/07 07:26:39;;;;;;;;;;;;;;;18.37;70.03;96353.53;4982065;28;19953;-69
2023/05/07 07:29:06;;;;;;;;;;;;;;;18.39;70.16;96349.53;4982124;28;19958;-68
2023/05/07 07:31:32;;;;;;;;;;;;;;;18.32;68.20;96343.72;4982463;28;19969;-82
2023/05/07 07:33:58;;;;;;;;;;;;;;;18.37;70.79;96362.31;4981980;28;19959;-70
2023/05/07 07:36:24;;;;;;;;;;;;;;;18.37;70.27;96354.34;4982508;28;19951;-71
2023/05/07 07:38:50;;;;;;;;;;;;;;;18.21;69.83;96348.25;4982671;28;20288;-70
2023/05/07 07:41:15;;;;;;;;;;;;;;;18.21;70.61;96358.88;4982015;28;19982;-70
2023/05/07 07:43:41;;;;;;;;;;;;;;;18.38;70.92;96363.88;4982364;28;19994;-71
2023/05/07 07:46:07;;;;;;;;;;;;;;;18.39;69.40;96354.84;4982415;28;19954;-70
2023/05/07 07:48:33;;;;;;;;;;;;;;;18.40;68.86;96350.34;4985555;28;19954;-83
2023/05/07 07:50:59;;;;;;;;;;;;;;;18.44;67.38;96346.88;4985508;28;19976;-72
2023/05/07 07:53:25;;;;;;;;;;;;;;;18.44;69.38;96354.06;4985519;28;19971;-72
2023/05/07 07:55:51;;;;;;;;;;;;;;;18.65;70.59;96358.22;4985571;28;19958;-72
2023/05/07 07:58:16;;;;;;;;;;;;;;;18.97;67.65;96354.41;4985757;28;19967;-72
2023/05/07 08:00:42;;;;;;;;;;;;;;;19.22;67.59;96348.16;4985425;28;19961;-72
2023/05/07 08:03:11;;;;;;;;;;;;;;;19.55;66.50;96345.00;4984469;28;19959;-72
2023/05/07 08:05:38;;;;;;;;;;;;;;;19.81;64.05;96341.09;4984894;28;20199;-72
2023/05/07 08:08:04;;;;;;;;;;;;;;;20.01;64.72;96347.31;4985700;28;19961;-72
2023/05/07 08:10:33;;;;;;;;;;;;;;;20.20;63.30;96340.22;4985252;28;19954;-68
2023/05/07 08:12:59;;;;;;;;;;;;;;;20.17;63.26;96338.09;4985548;28;19964;-68
2023/05/07 08:15:25;;;;;;;;;;;;;;;19.93;62.76;96339.91;4985539;28;20028;-67
2023/05/07 08:17:51;;;;;;;;;;;;;;;19.65;63.19;96344.91;4985328;28;19959;-68
2023/05/07 08:20:17;;;;;;;;;;;;;;;19.50;65.38;96361.78;4985176;28;19962;-67
2023/05/07 08:22:43;;;;;;;;;;;;;;;19.45;65.57;96359.19;4984657;28;19970;-68
2023/05/07 08:25:09;;;;;;;;;;;;;;;19.35;65.53;96359.25;4984993;28;20018;-69
2023/05/07 08:27:35;;;;;;;;;;;;;;;19.57;66.86;96372.09;4985219;28;19961;-68
2023/05/07 08:30:01;;;;;;;;;;;;;;;19.77;63.10;96349.91;5052083;28;19951;-68
2023/05/07 08:32:27;;;;;;;;;;;;;;;19.74;63.97;96343.28;4985086;28;19970;-70
2023/05/07 08:34:53;;;;;;;;;;;;;;;19.84;61.53;96329.09;4984597;28;20238;-68
2023/05/07 08:37:19;;;;;;;;;;;;;;;19.97;64.46;96356.91;4985123;28;19966;-68
2023/05/07 08:39:45;;;;;;;;;;;;;;;20.05;63.28;96338.50;4985045;28;20204;-68
2023/05/07 08:42:12;;;;;;;;;;;;;;;20.23;64.65;96346.84;4984449;28;19961;-83
2023/05/07 08:44:39;;;;;;;;;;;;;;;20.48;64.40;96341.22;4984685;28;19956;-72
2023/05/07 08:47:06;;;;;;;;;;;;;;;20.70;62.88;96337.28;4984832;28;19968;-68
2023/05/07 08:49:33;;;;;;;;;;;;;;;20.69;62.85;96343.69;4984627;28;19957;-68
2023/05/07 08:52:00;;;;;;;;;;;;;;;20.63;62.85;96342.94;4984593;28;19976;-68
2023/05/07 08:54:26;;;;;;;;;;;;;;;20.68;62.69;96339.44;5051889;28;20247;-68
2023/05/07 08:56:51;;;;;;;;;;;;;;;20.72;62.58;96340.44;4984740;28;19935;-68
2023/05/07 08:59:17;;;;;;;;;;;;;;;20.84;62.59;96337.38;4984413;28;19970;-68
2023/05/07 09:01:43;;;;;;;;;;;;;;;20.99;61.90;96337.16;4984720;28;19968;-68
2023/05/07 09:04:09;;;;;;;;;;;;;;;21.13;62.23;96336.47;5051343;28;19984;-75
2023/05/07 09:06:36;;;;;;;;;;;;;;;21.15;59.79;96328.97;4984701;28;20143;-76
2023/05/07 09:09:04;;;;;;;;;;;;;;;21.23;60.66;96334.44;4984628;28;19959;-76
2023/05/07 09:11:30;;;;;;;;;;;;;;;21.34;61.31;96337.75;4984302;28;19968;-76
2023/05/07 09:13:57;;;;;;;;;;;;;;;21.43;58.81;96332.59;4984118;28;19961;-77
2023/05/07 09:16:23;;;;;;;;;;;;;;;21.55;59.23;96327.59;4984162;28;19963;-72
2023/05/07 09:18:53;;;;;;;;;;;;;;;21.64;59.03;96320.50;4984069;28;19964;-72
2023/05/07 09:21:19;;;;;;;;;;;;;;;21.72;57.37;96326.28;4984350;28;19961;-73
2023/05/07 09:23:45;;;;;;;;;;;;;;;21.68;58.07;96320.72;4984371;28;19954;-72
2023/05/07 09:26:11;;;;;;;;;;;;;;;21.64;58.40;96317.06;4984459;28;20030;-72
2023/05/07 09:28:44;;;;;;;;;;;;;;;21.69;58.83;96319.63;4984372;28;19983;-72
2023/05/07 09:31:10;;;;;;;;;;;;;;;21.72;56.15;96329.72;4983736;28;19943;-72
2023/05/07 09:33:36;;;;;;;;;;;;;;;21.84;59.99;96332.75;4983937;28;19969;-72
2023/05/07 09:36:05;;;;;;;;;;;;;;;21.92;58.14;96325.13;4983509;28;20343;-72
2023/05/07 09:38:35;;;;;;;;;;;;;;;21.98;56.61;96324.75;4983895;28;19967;-80
2023/05/07 09:41:04;;;;;;;;;;;;;;;22.04;56.21;96323.56;4983892;28;20260;-81
2023/05/07 09:43:34;;;;;;;;;;;;;;;22.14;57.46;96335.16;4983901;28;19959;-81
2023/05/07 09:46:05;;;;;;;;;;;;;;;22.21;58.07;96330.22;5050424;28;19972;-81
2023/05/07 09:48:31;;;;;;;;;;;;;;;22.25;58.36;96328.56;5051070;28;19960;-81
2023/05/07 09:51:01;;;;;;;;;;;;;;;22.41;57.73;96332.56;4984109;28;19962;-80
2023/05/07 09:53:28;;;;;;;;;;;;;;;22.40;55.03;96325.59;4983460;28;19968;-81
2023/05/07 09:55:56;;;;;;;;;;;;;;;22.40;57.30;96333.63;4983412;28;20005;-74
2023/05/07 09:58:22;;;;;;;;;;;;;;;22.45;56.55;96328.19;4983456;28;19988;-73
2023/05/07 10:00:49;;;;;;;;;;;;;;;22.55;58.10;96324.50;4983479;28;19958;-71
2023/05/07 10:03:15;;;;;;;;;;;;;;;22.65;56.30;96318.97;4983452;28;20284;-72
2023/05/07 10:05:43;;;;;;;;;;;;;;;22.85;56.92;96322.34;4983410;28;19952;-73
2023/05/07 10:08:09;;;;;;;;;;;;;;;23.08;57.60;96312.50;4983468;28;20148;-72
2023/05/07 10:10:35;;;;;;;;;;;;;;;23.06;54.96;96309.34;4982731;28;19964;-72
2023/05/07 10:13:02;;;;;;;;;;;;;;;23.00;54.89;96311.31;4983012;28;19971;-72
2023/05/07 10:15:28;;;;;;;;;;;;;;;23.16;56.17;96305.63;5050064;28;19961;-69
2023/05/07 10:17:55;;;;;;;;;;;;;;;23.34;53.97;96306.56;4983378;28;19961;-84
2023/05/07 10:20:21;;;;;;;;;;;;;;;23.38;53.34;96297.63;4983528;28;20140;-82
2023/05/07 10:22:48;;;;;;;;;;;;;;;23.37;54.71;96301.41;4983483;28;20019;-80
2023/05/07 10:25:25;;;;;;;;;;;;;;;23.55;55.37;96306.88;4983015;28;19939;-81
2023/05/07 10:27:53;;;;;;;;;;;;;;;23.76;53.89;96299.97;4983123;28;20242;-82
2023/05/07 10:30:45;;;;;;;;;;;;;;;23.85;54.55;96305.34;4983092;28;20133;-82
2023/05/07 10:33:14;;;;;;;;;;;;;;;23.84;51.17;96304.56;4985055;28;19973;-67
2023/05/07 10:35:41;;;;;;;;;;;;;;;23.85;51.10;96305.34;4983439;28;19960;-83
2023/05/07 10:38:07;;;;;;;;;;;;;;;23.99;50.24;96299.94;4983421;28;19963;-69
2023/05/07 10:40:33;;;;;;;;;;;;;;;24.11;52.66;96295.56;4983230;28;20115;-68
2023/05/07 10:43:04;;;;;;;;;;;;;;;24.21;50.89;96291.84;4983244;28;19955;-68
2023/05/07 10:45:30;;;;;;;;;;;;;;;24.26;49.75;96290.91;4983465;28;19944;-69
2023/05/07 10:48:13;;;;;;;;;;;;;;;24.36;50.87;96295.19;4983439;28;19960;-69
2023/05/07 10:50:40;;;;;;;;;;;;;;;24.55;51.16;96306.47;4982838;28;19956;-68
2023/05/07 10:53:21;;;;;;;;;;;;;;;24.69;52.63;96293.75;4982775;28;20293;-72
2023/05/07 10:55:51;;;;;;;;;;;;;;;24.82;52.66;96285.84;4982881;28;19965;-71
2023/05/07 10:58:26;;;;;;;;;;;;;;;24.72;46.45;96292.31;4982930;28;19959;-71
2023/05/07 11:00:56;;;;;;;;;;;;;;;24.78;49.16;96287.59;4982972;28;19963;-71
2023/05/07 11:03:22;;;;;;;;;;;;;;;24.93;48.41;96287.16;4983443;28;20232;-71
2023/05/07 11:06:07;;;;;;;;;;;;;;;25.02;47.46;96271.06;4983174;28;20123;-72
2023/05/07 11:08:55;;;;;;;;;;;;;;;25.07;48.05;96276.25;4983045;28;19953;-71
2023/05/07 11:11:40;;;;;;;;;;;;;;;25.02;46.42;96274.53;4982739;28;19958;-68
2023/05/07 11:14:06;;;;;;;;;;;;;;;24.88;47.83;96281.91;4982640;28;19998;-72
2023/05/07 11:16:33;;;;;;;;;;;;;;;24.61;46.21;96289.16;4982716;28;20119;-71
2023/05/07 11:18:59;;;;;;;;;;;;;;;24.40;43.96;96291.59;4982792;28;19964;-71
2023/05/07 11:21:37;;;;;;;;;;;;;;;24.22;45.58;96306.03;4984675;28;19957;-72
2023/05/07 11:24:05;;;;;;;;;;;;;;;24.15;45.89;96300.28;5053950;28;19969;-71
2023/05/07 11:26:42;;;;;;;;;;;;;;;24.08;47.07;96298.06;4985968;28;19953;-72
2023/05/07 11:29:15;;;;;;;;;;;;;;;24.00;45.76;96296.13;4986065;28;19965;-68
2023/05/07 11:31:41;;;;;;;;;;;;;;;23.87;48.96;96306.63;4986128;28;20163;-81
2023/05/07 11:34:07;;;;;;;;;;;;;;;23.79;48.60;96299.34;4986049;28;19970;-83
2023/05/07 11:36:33;;;;;;;;;;;;;;;23.73;49.07;96297.88;4985927;28;20132;-81
2023/05/07 11:38:59;;;;;;;;;;;;;;;23.63;49.03;96303.47;4985987;28;19954;-81
2023/05/07 11:41:35;;;;;;;;;;;;;;;23.55;49.64;96302.31;4986020;28;19960;-83
2023/05/07 11:44:01;;;;;;;;;;;;;;;23.39;49.14;96296.56;4985483;28;19938;-81
2023/05/07 11:46:27;;;;;;;;;;;;;;;23.24;50.37;96297.66;4985920;28;20031;-70
2023/05/07 11:48:54;;;;;;;;;;;;;;;23.11;50.85;96301.19;4985692;28;19958;-83
2023/05/07 11:51:20;;;;;;;;;;;;;;;23.06;51.16;96307.44;4985487;28;19967;-84
2023/05/07 11:53:46;;;;;;;;;;;;;;;23.00;52.39;96308.63;4985590;28;19966;-84
2023/05/07 11:56:13;;;;;;;;;;;;;;;22.95;52.25;96308.75;4985479;28;20050;-83
2023/05/07 11:58:40;;;;;;;;;;;;;;;22.87;51.69;96304.88;4985503;28;19961;-83
2023/05/07 12:01:08;;;;;;;;;;;;;;;22.59;53.52;96317.47;4985503;28;19969;-87
2023/05/07 12:03:37;;;;;;;;;;;;;;;22.36;54.46;96329.16;4985214;28;20062;-84
2023/05/07 12:06:05;;;;;;;;;;;;;;;21.98;54.94;96332.75;4985596;28;20060;-73
2023/05/07 12:08:31;;;;;;;;;;;;;;;21.78;56.64;96333.91;4985652;28;19953;-84
2023/05/07 12:10:57;;;;;;;;;;;;;;;21.60;57.59;96345.41;5052338;28;20047;-83
2023/05/07 12:13:24;;;;;;;;;;;;;;;21.43;58.59;96338.72;4985431;28;19962;-84
2023/05/07 12:15:54;;;;;;;;;;;;;;;21.29;59.02;96343.16;4985431;28;19968;-84
2023/05/07 12:18:21;;;;;;;;;;;;;;;21.07;59.78;96354.41;4985063;28;19963;-84
2023/05/07 12:20:47;;;;;;;;;;;;;;;20.84;60.11;96359.50;4985817;28;19950;-83
2023/05/07 12:23:13;;;;;;;;;;;;;;;20.66;61.69;96366.38;4985042;28;19957;-68
2023/05/07 12:25:46;;;;;;;;;;;;;;;20.50;63.45;96369.47;4985097;28;19963;-69
2023/05/07 12:28:16;;;;;;;;;;;;;;;20.29;64.47;96369.69;4985283;28;19963;-82
2023/05/07 12:30:42;;;;;;;;;;;;;;;20.11;63.60;96378.38;4985261;28;20249;-82
2023/05/07 12:33:08;;;;;;;;;;;;;;;19.99;66.00;96384.06;4984509;28;19966;-79
2023/05/07 12:35:41;;;;;;;;;;;;;;;19.95;66.54;96380.34;4984927;28;20145;-78
2023/05/07 12:38:11;;;;;;;;;;;;;;;19.95;67.16;96393.66;4984952;28;19967;-76
2023/05/07 12:40:38;;;;;;;;;;;;;;;19.92;64.70;96399.56;4985121;28;19956;-78
2023/05/07 12:43:04;;;;;;;;;;;;;;;19.89;66.07;96408.13;4984792;28;19963;-73
2023/05/07 12:45:30;;;;;;;;;;;;;;;19.88;64.43;96420.59;4984721;28;19963;-66